Time;durP1;ratioP1;P1;durP2;ratioP2;P2;SDS_P1;SDS_P2;PMS_P1;PMS_P2;Temp;Humidity;BMP_temperature;BMP_pressure;BME280_temperature;BME280_humidity;BME280_pressure;Samples;Min_cycle;Max_cycle;Signal;HPM_P1;HPM_P2
2022/09/08 00:00:58;;;;;;;1.50;1.23;;;23.50;55.70;;;;;;5026386;28;20029;-79
2022/09/08 00:03:27;;;;;;;2.38;1.30;;;23.50;55.80;;;;;;5028637;28;20382;-80
2022/09/08 00:06:01;;;;;;;1.77;1.27;;;23.50;55.80;;;;;;5008603;28;20052;-80
2022/09/08 00:08:28;;;;;;;1.77;1.10;;;23.50;55.90;;;;;;5023728;28;20046;-80
2022/09/08 00:10:57;;;;;;;1.48;1.05;;;23.50;55.80;;;;;;5044967;28;20108;-79
2022/09/08 00:13:25;;;;;;;1.50;1.10;;;23.40;55.80;;;;;;5027317;28;20029;-80
2022/09/08 00:15:52;;;;;;;1.65;1.25;;;23.40;55.90;;;;;;5007245;28;20036;-81
2022/09/08 00:18:18;;;;;;;1.80;1.40;;;23.40;55.80;;;;;;5026673;28;20044;-80
2022/09/08 00:20:44;;;;;;;1.40;1.30;;;23.40;55.90;;;;;;5005853;28;20021;-80
2022/09/08 00:23:11;;;;;;;1.77;1.25;;;23.40;55.90;;;;;;5008858;28;20029;-79
2022/09/08 00:25:37;;;;;;;1.77;1.40;;;23.40;55.90;;;;;;5026190;28;20025;-78
2022/09/08 00:28:02;;;;;;;1.42;1.17;;;23.40;56.00;;;;;;5025232;28;20052;-79
2022/09/08 00:30:28;;;;;;;1.38;1.20;;;23.30;56.00;;;;;;5021695;28;20053;-79
2022/09/08 00:32:54;;;;;;;1.95;1.33;;;23.30;55.90;;;;;;5026778;28;20418;-79
2022/09/08 00:35:21;;;;;;;1.27;1.17;;;23.40;56.00;;;;;;5021929;28;20014;-80
2022/09/08 00:37:48;;;;;;;1.65;1.15;;;23.30;56.00;;;;;;5024032;28;20033;-80
2022/09/08 00:40:15;;;;;;;1.30;1.08;;;23.30;56.10;;;;;;5023123;28;20041;-82
2022/09/08 00:42:42;;;;;;;1.48;1.30;;;23.30;56.10;;;;;;5027673;28;20026;-82
2022/09/08 00:45:10;;;;;;;1.70;1.02;;;23.30;56.20;;;;;;5027543;28;20032;-82
2022/09/08 00:47:55;;;;;;;1.90;1.20;;;23.30;56.20;;;;;;5038399;28;20470;-81
2022/09/08 00:50:25;;;;;;;1.27;1.15;;;23.30;56.40;;;;;;5024662;28;20091;-81
2022/09/08 00:53:04;;;;;;;2.20;1.30;;;23.20;56.30;;;;;;5021944;28;20078;-81
2022/09/08 00:55:34;;;;;;;1.73;1.30;;;23.30;56.40;;;;;;5019429;28;20111;-81
2022/09/08 00:58:00;;;;;;;1.30;1.13;;;23.20;56.40;;;;;;5020440;28;20029;-80
2022/09/08 01:00:26;;;;;;;1.30;1.10;;;23.20;56.40;;;;;;5007506;28;20045;-81
2022/09/08 01:02:52;;;;;;;1.25;1.00;;;23.20;56.50;;;;;;5019896;28;20022;-80
2022/09/08 01:05:21;;;;;;;1.65;1.13;;;23.20;56.50;;;;;;4990657;28;20470;-80
2022/09/08 01:14:04;;;;;;;2.55;1.30;;;23.20;56.90;;;;;;5021020;28;20041;-80
2022/09/08 01:16:39;;;;;;;1.50;1.00;;;23.10;56.80;;;;;;5003287;28;20160;-80
2022/09/08 01:19:11;;;;;;;1.33;1.05;;;23.10;57.00;;;;;;5040765;28;20033;-80
2022/09/08 01:22:00;;;;;;;1.83;1.00;;;23.10;56.90;;;;;;5038076;28;20025;-81
2022/09/08 01:24:35;;;;;;;1.00;0.90;;;23.10;57.10;;;;;;5037825;28;20025;-80
2022/09/08 01:27:18;;;;;;;1.52;1.10;;;23.10;57.10;;;;;;5035950;28;20021;-81
2022/09/08 01:29:45;;;;;;;1.65;1.15;;;23.10;57.20;;;;;;5019764;28;20026;-84
2022/09/08 01:32:13;;;;;;;1.98;1.20;;;23.10;57.20;;;;;;5041129;28;20454;-80
2022/09/08 01:34:41;;;;;;;1.20;1.05;;;23.10;57.30;;;;;;5036889;28;20485;-80
2022/09/08 01:37:07;;;;;;;1.92;1.20;;;23.10;57.30;;;;;;5035369;28;20028;-81
2022/09/08 01:39:33;;;;;;;1.08;0.93;;;23.00;57.30;;;;;;5015918;28;20477;-82
2022/09/08 01:42:00;;;;;;;1.25;1.00;;;23.00;57.40;;;;;;5016944;28;20103;-81
2022/09/08 01:44:29;;;;;;;2.08;1.30;;;23.10;57.50;;;;;;5016848;28;20041;-81
2022/09/08 01:46:56;;;;;;;1.42;0.93;;;23.00;57.50;;;;;;5019919;28;20136;-82
2022/09/08 01:49:22;;;;;;;1.40;1.10;;;23.00;57.50;;;;;;5002846;28;20037;-80
2022/09/08 01:51:47;;;;;;;2.35;1.10;;;23.00;57.60;;;;;;5018897;28;20045;-80
2022/09/08 01:54:13;;;;;;;1.13;1.02;;;23.00;57.60;;;;;;5004469;28;20094;-80
2022/09/08 01:56:39;;;;;;;1.70;1.17;;;22.90;57.60;;;;;;5011091;28;20033;-82
2022/09/08 01:59:05;;;;;;;1.75;1.10;;;22.90;57.60;;;;;;5060955;28;20036;-80
2022/09/08 02:01:31;;;;;;;1.65;0.98;;;22.90;57.70;;;;;;5003776;28;20029;-81
2022/09/08 02:03:56;;;;;;;2.58;1.13;;;22.90;57.80;;;;;;5016310;28;20549;-80
2022/09/08 02:06:22;;;;;;;3.03;1.30;;;22.90;57.80;;;;;;5005162;28;20140;-80
2022/09/08 02:08:52;;;;;;;2.03;1.10;;;22.90;57.90;;;;;;5004572;28;20038;-81
2022/09/08 02:11:19;;;;;;;1.92;1.17;;;22.90;58.00;;;;;;5005014;28;20029;-80
2022/09/08 02:13:45;;;;;;;1.38;1.00;;;22.90;58.00;;;;;;4985427;28;20317;-80
2022/09/08 02:16:11;;;;;;;2.22;1.30;;;22.90;58.00;;;;;;5002421;28;20273;-80
2022/09/08 02:18:38;;;;;;;1.48;1.02;;;22.80;58.00;;;;;;5019182;28;20032;-79
2022/09/08 02:21:06;;;;;;;1.02;0.93;;;22.80;58.10;;;;;;5000298;28;20026;-79
2022/09/08 02:23:33;;;;;;;1.38;1.10;;;22.80;58.10;;;;;;5036628;28;20147;-80
2022/09/08 02:25:58;;;;;;;1.50;1.08;;;22.80;58.10;;;;;;5032804;28;20029;-80
2022/09/08 02:28:24;;;;;;;1.23;1.13;;;22.80;58.20;;;;;;5002794;28;20037;-80
2022/09/08 02:30:50;;;;;;;2.33;1.33;;;22.80;58.20;;;;;;5016790;28;20022;-79
2022/09/08 02:33:16;;;;;;;2.70;1.27;;;22.80;58.30;;;;;;5017311;28;20635;-79
2022/09/08 02:35:42;;;;;;;1.77;1.30;;;22.80;58.30;;;;;;5034019;28;20079;-80
2022/09/08 02:38:07;;;;;;;2.25;1.08;;;22.80;58.30;;;;;;5015464;28;20025;-79
2022/09/08 02:40:33;;;;;;;2.92;1.20;;;22.70;58.40;;;;;;5019010;28;20026;-80
2022/09/08 02:42:59;;;;;;;2.45;1.17;;;22.70;58.30;;;;;;5016364;28;20265;-80
2022/09/08 02:45:25;;;;;;;1.67;1.00;;;22.70;58.40;;;;;;5015940;28;20053;-80
2022/09/08 02:47:51;;;;;;;1.50;1.15;;;22.70;58.40;;;;;;5001929;28;20501;-80
2022/09/08 02:50:17;;;;;;;1.15;0.98;;;22.70;58.50;;;;;;5002105;28;20041;-79
2022/09/08 02:52:43;;;;;;;3.10;1.40;;;22.70;58.50;;;;;;5015420;28;20036;-80
2022/09/08 02:55:09;;;;;;;4.18;1.33;;;22.60;58.50;;;;;;5017711;28;20033;-80
2022/09/08 02:57:34;;;;;;;1.67;1.20;;;22.60;58.50;;;;;;4980420;28;20087;-79
2022/09/08 03:00:00;;;;;;;1.75;1.20;;;22.60;58.50;;;;;;5017980;28;20104;-80
2022/09/08 03:02:26;;;;;;;2.60;1.30;;;22.60;58.60;;;;;;5036825;28;20025;-80
2022/09/08 03:04:51;;;;;;;2.58;1.27;;;22.60;58.60;;;;;;5013423;28;20036;-80
2022/09/08 03:07:18;;;;;;;1.90;1.27;;;22.50;58.60;;;;;;5031851;28;20510;-80
2022/09/08 03:09:44;;;;;;;1.67;1.23;;;22.50;58.70;;;;;;5034610;28;20040;-80
2022/09/08 03:12:10;;;;;;;1.30;1.17;;;22.50;58.70;;;;;;4998168;28;20470;-80
2022/09/08 03:14:36;;;;;;;1.52;1.10;;;22.50;58.70;;;;;;5035577;28;20493;-81
2022/09/08 03:17:02;;;;;;;1.67;1.05;;;22.50;58.70;;;;;;5033432;28;20112;-80
2022/09/08 03:19:28;;;;;;;2.33;1.30;;;22.40;58.70;;;;;;5015378;28;20030;-80
2022/09/08 03:21:54;;;;;;;1.85;1.20;;;22.40;58.80;;;;;;5020526;28;20458;-80
2022/09/08 03:24:20;;;;;;;1.88;1.20;;;22.40;58.80;;;;;;5018216;28;20040;-80
2022/09/08 03:26:46;;;;;;;1.60;1.20;;;22.40;58.90;;;;;;5014706;28;20099;-81
2022/09/08 03:29:12;;;;;;;1.42;0.93;;;22.40;58.90;;;;;;5035927;28;20033;-80
2022/09/08 03:31:37;;;;;;;2.50;1.50;;;22.40;58.90;;;;;;5013573;28;20095;-81
2022/09/08 03:34:03;;;;;;;2.10;1.20;;;22.40;59.60;;;;;;5032081;28;20052;-80
2022/09/08 03:36:29;;;;;;;1.98;1.20;;;22.30;59.00;;;;;;4998738;28;20064;-80
2022/09/08 03:38:55;;;;;;;1.80;1.30;;;22.30;59.00;;;;;;5015124;28;20033;-80
2022/09/08 03:41:20;;;;;;;1.13;1.02;;;22.30;59.00;;;;;;5033962;28;20030;-80
2022/09/08 03:43:49;;;;;;;1.25;1.10;;;22.30;59.10;;;;;;4996228;28;20030;-80
2022/09/08 03:46:15;;;;;;;1.48;1.23;;;22.20;59.10;;;;;;5012139;28;20025;-80
2022/09/08 03:48:41;;;;;;;1.52;1.10;;;22.30;59.20;;;;;;5014378;28;20112;-80
2022/09/08 03:51:13;;;;;;;1.15;0.88;;;22.30;59.20;;;;;;5015820;28;20029;-81
2022/09/08 03:53:39;;;;;;;1.83;1.10;;;22.20;59.20;;;;;;5024568;28;20379;-79
2022/09/08 03:56:08;;;;;;;2.60;1.20;;;22.20;59.20;;;;;;5015202;28;20032;-80
2022/09/08 03:58:34;;;;;;;2.65;1.23;;;22.20;59.30;;;;;;5032356;28;20175;-80
2022/09/08 04:01:01;;;;;;;1.55;1.10;;;22.20;59.30;;;;;;5030296;28;20064;-80
2022/09/08 04:03:27;;;;;;;1.25;1.02;;;22.20;59.40;;;;;;5011815;28;20061;-80
2022/09/08 04:05:53;;;;;;;1.40;1.23;;;22.20;59.40;;;;;;5033474;28;20340;-80
2022/09/08 04:08:19;;;;;;;2.80;1.25;;;22.20;59.40;;;;;;5003432;28;20124;-80
2022/09/08 04:10:44;;;;;;;1.70;1.20;;;22.10;59.40;;;;;;4985340;28;20471;-80
2022/09/08 04:13:11;;;;;;;2.85;1.30;;;22.10;59.40;;;;;;4998762;28;20036;-80
2022/09/08 04:15:38;;;;;;;2.03;1.30;;;22.10;59.40;;;;;;5013316;28;20026;-80
2022/09/08 04:18:04;;;;;;;1.48;1.30;;;22.10;59.50;;;;;;5033008;28;20033;-80
2022/09/08 04:20:30;;;;;;;1.40;1.20;;;22.10;59.50;;;;;;5019582;28;20029;-79
2022/09/08 04:22:56;;;;;;;1.98;1.40;;;22.10;59.50;;;;;;5001099;28;20026;-79
2022/09/08 04:25:22;;;;;;;1.42;1.00;;;22.10;59.60;;;;;;5020271;28;20385;-80
2022/09/08 04:27:49;;;;;;;1.20;1.10;;;22.10;59.60;;;;;;4995617;28;20364;-79
2022/09/08 04:30:14;;;;;;;1.30;0.93;;;22.00;59.50;;;;;;4996064;28;20041;-80
2022/09/08 04:32:40;;;;;;;1.73;1.13;;;22.00;59.60;;;;;;5012636;28;20040;-80
2022/09/08 04:35:07;;;;;;;1.17;1.08;;;22.00;59.60;;;;;;5018631;28;20033;-80
2022/09/08 04:37:33;;;;;;;1.63;0.95;;;22.00;59.60;;;;;;5015047;28;20033;-81
2022/09/08 04:39:59;;;;;;;1.48;1.20;;;22.00;59.70;;;;;;5015012;28;20033;-80
2022/09/08 04:42:24;;;;;;;2.25;1.33;;;22.00;59.70;;;;;;5029938;28;20116;-81
2022/09/08 04:44:50;;;;;;;1.98;1.27;;;21.90;59.70;;;;;;5000661;28;20026;-81
2022/09/08 04:47:16;;;;;;;1.67;1.20;;;22.00;59.80;;;;;;5006759;28;20365;-81
2022/09/08 04:49:42;;;;;;;2.67;1.23;;;21.90;59.80;;;;;;5015177;28;20100;-80
2022/09/08 04:52:07;;;;;;;1.52;1.10;;;22.00;59.80;;;;;;5022099;28;20040;-80
2022/09/08 04:54:33;;;;;;;2.25;1.30;;;21.90;59.80;;;;;;5014668;28;20367;-80
2022/09/08 04:56:59;;;;;;;1.17;1.08;;;21.90;59.80;;;;;;4997637;28;20118;-79
2022/09/08 04:59:25;;;;;;;1.52;1.10;;;21.90;59.80;;;;;;5015851;28;20061;-81
2022/09/08 05:01:51;;;;;;;1.20;1.10;;;21.90;59.90;;;;;;5020888;28;20029;-80
2022/09/08 05:04:17;;;;;;;1.23;1.10;;;21.90;60.00;;;;;;5034425;28;20166;-81
2022/09/08 05:06:44;;;;;;;2.35;1.13;;;21.90;60.00;;;;;;5014385;28;20502;-82
2022/09/08 05:09:11;;;;;;;1.60;1.20;;;21.90;60.00;;;;;;5017070;28;20490;-82
2022/09/08 05:11:37;;;;;;;1.33;1.10;;;21.90;60.00;;;;;;5022771;28;20021;-82
2022/09/08 05:14:04;;;;;;;1.10;1.00;;;21.80;59.90;;;;;;5018457;28;20350;-81
2022/09/08 05:16:30;;;;;;;1.27;1.00;;;21.80;60.00;;;;;;5019400;28;20056;-82
2022/09/08 05:19:01;;;;;;;1.73;1.00;;;21.80;60.00;;;;;;5039132;28;20036;-82
2022/09/08 05:21:29;;;;;;;1.30;1.20;;;21.80;60.10;;;;;;5005548;28;20029;-82
2022/09/08 05:23:56;;;;;;;0.93;0.88;;;21.80;60.10;;;;;;5019187;28;20029;-80
2022/09/08 05:26:24;;;;;;;1.02;1.02;;;21.80;60.10;;;;;;5016082;28;20034;-81
2022/09/08 05:28:50;;;;;;;1.40;1.10;;;21.80;60.20;;;;;;5011276;28;20071;-82
2022/09/08 05:31:18;;;;;;;1.85;1.30;;;21.80;60.20;;;;;;5003939;28;20057;-81
2022/09/08 05:33:44;;;;;;;1.55;1.13;;;21.80;60.20;;;;;;5014472;28;20112;-82
2022/09/08 05:36:17;;;;;;;1.77;1.15;;;21.70;60.10;;;;;;5017265;28;20665;-81
2022/09/08 05:38:44;;;;;;;3.65;1.20;;;21.70;60.20;;;;;;5018099;28;20480;-80
2022/09/08 05:41:11;;;;;;;1.45;1.02;;;21.70;60.20;;;;;;5034239;28;20017;-80
2022/09/08 05:43:37;;;;;;;1.23;1.08;;;21.70;60.20;;;;;;4998025;28;20060;-81
2022/09/08 05:46:05;;;;;;;2.17;1.30;;;21.70;60.20;;;;;;5019413;28;20141;-81
2022/09/08 05:48:31;;;;;;;2.53;1.65;;;21.70;60.30;;;;;;5025237;28;20044;-81
2022/09/08 05:50:58;;;;;;;1.45;1.02;;;21.70;60.30;;;;;;5015151;28;20038;-81
2022/09/08 05:53:24;;;;;;;1.02;0.90;;;21.70;60.30;;;;;;5022347;28;20079;-81
2022/09/08 05:56:01;;;;;;;1.75;1.02;;;21.70;60.30;;;;;;5022005;28;20025;-81
2022/09/08 05:58:28;;;;;;;1.48;1.05;;;21.70;60.50;;;;;;5022434;28;20028;-81
2022/09/08 06:01:03;;;;;;;2.50;1.30;;;21.60;60.30;;;;;;5002594;28;20359;-81
2022/09/08 06:03:29;;;;;;;2.25;1.27;;;21.60;60.50;;;;;;5031244;28;20108;-80
2022/09/08 06:05:55;;;;;;;1.30;1.20;;;21.60;60.40;;;;;;5022371;28;20239;-80
2022/09/08 06:08:22;;;;;;;1.98;1.23;;;21.60;60.50;;;;;;5021874;28;20037;-79
2022/09/08 06:10:52;;;;;;;1.35;1.20;;;21.60;60.60;;;;;;5003972;28;20037;-81
2022/09/08 06:13:19;;;;;;;1.45;1.27;;;21.60;60.60;;;;;;5030902;28;20025;-79
2022/09/08 06:15:45;;;;;;;2.10;1.52;;;21.60;60.60;;;;;;4994600;28;20029;-79
2022/09/08 06:18:11;;;;;;;1.80;1.27;;;21.60;60.60;;;;;;5014965;28;20017;-80
2022/09/08 06:20:37;;;;;;;2.13;1.30;;;21.60;60.70;;;;;;5015398;28;20052;-80
2022/09/08 06:23:03;;;;;;;2.45;1.45;;;21.60;60.70;;;;;;5017404;28;20029;-81
2022/09/08 06:25:29;;;;;;;1.98;1.35;;;21.60;60.70;;;;;;5024320;28;20355;-78
2022/09/08 06:28:29;;;;;;;1.85;1.30;;;21.50;60.70;;;;;;4987044;28;20063;-80
2022/09/08 06:30:55;;;;;;;2.05;1.38;;;21.50;60.90;;;;;;5015694;28;20029;-79
2022/09/08 06:33:34;;;;;;;1.30;1.10;;;21.50;60.70;;;;;;4999437;28;20458;-79
2022/09/08 06:36:09;;;;;;;1.95;1.30;;;21.50;60.80;;;;;;5014708;28;20017;-80
2022/09/08 06:38:45;;;;;;;1.80;1.30;;;21.50;60.90;;;;;;5028307;28;20474;-80
2022/09/08 06:41:26;;;;;;;1.95;1.35;;;21.50;60.90;;;;;;5002625;28;20028;-80
2022/09/08 06:43:58;;;;;;;1.88;1.42;;;21.50;60.90;;;;;;5028322;28;20029;-80
2022/09/08 06:46:28;;;;;;;2.08;1.20;;;21.40;60.90;;;;;;5014614;28;20055;-80
2022/09/08 06:48:54;;;;;;;2.53;1.30;;;21.40;60.90;;;;;;5031814;28;20529;-80
2022/09/08 06:51:38;;;;;;;2.22;1.27;;;21.40;60.90;;;;;;5002300;28;20025;-79
2022/09/08 06:54:28;;;;;;;2.15;1.30;;;21.40;60.90;;;;;;5032750;28;20022;-80
2022/09/08 06:57:11;;;;;;;2.20;1.38;;;21.40;61.00;;;;;;5012697;28;20037;-80
2022/09/08 06:59:47;;;;;;;2.05;1.40;;;21.40;61.00;;;;;;4995894;28;20037;-81
2022/09/08 07:02:50;;;;;;;3.10;1.40;;;21.40;61.00;;;;;;5013529;28;20030;-81
2022/09/08 07:05:39;;;;;;;1.30;1.00;;;21.40;61.20;;;;;;5017424;28;20040;-80
2022/09/08 07:08:18;;;;;;;1.58;1.02;;;21.30;61.00;;;;;;5009336;28;20466;-80
2022/09/08 07:11:17;;;;;;;1.98;1.20;;;21.30;61.10;;;;;;5026256;28;20049;-80
2022/09/08 07:13:55;;;;;;;2.55;1.38;;;21.30;61.10;;;;;;5015989;28;20033;-81
2022/09/08 07:16:36;;;;;;;2.28;1.38;;;21.30;61.10;;;;;;5016504;28;20021;-80
2022/09/08 07:19:21;;;;;;;2.20;1.38;;;21.30;61.10;;;;;;5016555;28;20356;-80
2022/09/08 07:22:00;;;;;;;2.35;1.25;;;21.30;61.20;;;;;;5019949;28;20441;-80
2022/09/08 07:24:34;;;;;;;1.90;1.20;;;21.30;61.20;;;;;;5010016;28;20507;-80
2022/09/08 07:27:21;;;;;;;1.58;1.10;;;21.30;61.20;;;;;;5011929;28;20048;-80
2022/09/08 07:29:50;;;;;;;2.10;1.38;;;21.30;61.20;;;;;;5016026;28;20128;-80
2022/09/08 07:32:28;;;;;;;2.33;1.40;;;21.30;61.20;;;;;;5037157;28;20029;-80
2022/09/08 07:35:02;;;;;;;1.92;1.35;;;21.30;61.30;;;;;;5010053;28;20033;-80
2022/09/08 07:37:49;;;;;;;2.40;1.40;;;21.30;61.30;;;;;;5016291;28;20143;-80
2022/09/08 07:40:28;;;;;;;1.90;1.35;;;21.30;61.40;;;;;;5021428;28;20041;-81
2022/09/08 07:42:56;;;;;;;1.50;1.40;;;21.30;61.20;;;;;;5011494;28;20053;-80
2022/09/08 07:45:34;;;;;;;2.70;1.60;;;21.30;61.30;;;;;;5027043;28;20091;-80
2022/09/08 07:48:10;;;;;;;1.75;1.23;;;21.20;61.40;;;;;;5031039;28;20053;-80
2022/09/08 07:50:55;;;;;;;1.20;1.10;;;21.30;61.40;;;;;;4995734;28;20033;-80
2022/09/08 07:53:55;;;;;;;1.63;1.20;;;21.20;61.40;;;;;;5014464;28;20385;-81
2022/09/08 07:56:39;;;;;;;1.65;1.23;;;21.20;61.50;;;;;;5028499;28;20026;-81
2022/09/08 07:59:30;;;;;;;1.75;1.20;;;21.20;61.40;;;;;;5013744;28;20040;-81
2022/09/08 08:02:10;;;;;;;2.00;1.15;;;21.20;61.50;;;;;;4994054;28;20030;-82
2022/09/08 08:05:19;;;;;;;1.77;1.30;;;21.20;61.40;;;;;;5003441;28;20087;-89
2022/09/08 08:08:06;;;;;;;1.30;1.20;;;21.20;61.60;;;;;;4984042;28;20053;-83
2022/09/08 08:11:08;;;;;;;1.83;1.30;;;21.20;61.50;;;;;;4995851;28;20037;-82
2022/09/08 08:13:55;;;;;;;1.92;1.40;;;21.20;61.60;;;;;;5004561;28;20032;-81
2022/09/08 08:16:47;;;;;;;1.63;1.20;;;21.20;61.70;;;;;;5017749;28;20551;-81
2022/09/08 08:19:52;;;;;;;1.45;1.23;;;21.20;61.70;;;;;;4987451;28;20051;-82
2022/09/08 08:22:36;;;;;;;1.70;1.33;;;21.20;61.70;;;;;;4953483;28;20138;-82
2022/09/08 08:25:14;;;;;;;1.60;1.35;;;21.20;61.50;;;;;;5019264;28;20030;-81
2022/09/08 08:28:05;;;;;;;1.67;1.30;;;21.10;61.60;;;;;;5023139;28;20107;-81
2022/09/08 08:30:37;;;;;;;1.98;1.40;;;21.20;61.80;;;;;;5016441;28;20234;-81
2022/09/08 08:33:27;;;;;;;1.27;1.17;;;21.20;61.70;;;;;;5018335;28;20642;-81
2022/09/08 08:35:59;;;;;;;1.70;1.27;;;21.20;61.80;;;;;;5033465;28;20501;-80
2022/09/08 08:38:33;;;;;;;2.83;1.15;;;21.20;61.80;;;;;;5020632;28;20175;-81
2022/09/08 08:41:00;;;;;;;1.75;1.40;;;21.20;61.80;;;;;;5021099;28;20029;-81
2022/09/08 08:43:57;;;;;;;1.52;1.15;;;21.20;61.80;;;;;;5013248;28;20057;-81
2022/09/08 08:46:45;;;;;;;1.27;1.17;;;21.20;61.90;;;;;;5020252;28;20029;-80
2022/09/08 08:49:40;;;;;;;1.40;1.30;;;21.20;61.80;;;;;;5037451;28;20048;-80
2022/09/08 08:52:19;;;;;;;1.30;1.20;;;21.20;61.90;;;;;;5013560;28;20072;-81
2022/09/08 08:54:54;;;;;;;1.80;1.30;;;21.20;61.80;;;;;;5017017;28;20041;-82
2022/09/08 08:57:32;;;;;;;1.50;1.40;;;21.30;62.00;;;;;;4998186;28;20033;-81
2022/09/08 09:00:11;;;;;;;2.05;1.40;;;21.30;62.00;;;;;;5029787;28;20757;-80
2022/09/08 09:03:01;;;;;;;1.23;1.13;;;21.30;62.10;;;;;;5006821;28;20029;-82
2022/09/08 09:05:56;;;;;;;1.50;1.30;;;21.30;62.10;;;;;;5015630;28;20133;-84
2022/09/08 09:08:59;;;;;;;2.17;1.40;;;21.30;62.00;;;;;;4994198;28;20043;-82
2022/09/08 09:12:09;;;;;;;1.50;1.23;;;21.30;62.10;;;;;;5018297;28;20056;-81
2022/09/08 09:14:50;;;;;;;1.20;1.15;;;21.30;62.10;;;;;;4936019;28;20039;-85
2022/09/08 09:17:34;;;;;;;1.38;1.17;;;21.30;62.00;;;;;;5010639;28;20045;-83
2022/09/08 09:20:26;;;;;;;2.40;1.38;;;21.40;62.20;;;;;;5048909;28;20018;-84
2022/09/08 09:23:11;;;;;;;2.75;1.40;;;21.40;62.10;;;;;;5014477;28;20049;-84
2022/09/08 09:25:46;;;;;;;1.40;1.30;;;21.40;62.20;;;;;;5018194;28;20032;-82
2022/09/08 09:28:24;;;;;;;1.45;1.27;;;21.40;62.10;;;;;;5017397;28;20025;-82
2022/09/08 09:31:10;;;;;;;1.58;1.30;;;21.50;62.10;;;;;;5037511;28;20112;-82
2022/09/08 09:33:51;;;;;;;1.73;1.33;;;21.40;62.20;;;;;;5045432;28;20027;-81
2022/09/08 09:36:34;;;;;;;2.05;1.25;;;21.40;62.30;;;;;;5035813;28;20120;-81
2022/09/08 09:39:38;;;;;;;2.10;1.55;;;21.50;62.30;;;;;;5015053;28;20091;-81
2022/09/08 09:42:03;;;;;;;1.63;1.23;;;21.50;62.30;;;;;;5037226;28;20025;-82
2022/09/08 09:44:53;;;;;;;1.70;1.40;;;21.50;62.10;;;;;;5034304;28;20531;-81
2022/09/08 09:47:34;;;;;;;2.28;1.33;;;21.50;62.30;;;;;;5019530;28;20048;-81
2022/09/08 09:50:34;;;;;;;1.83;1.27;;;21.50;62.20;;;;;;5048218;28;20025;-81
2022/09/08 09:53:18;;;;;;;1.38;1.15;;;21.50;62.30;;;;;;5015036;28;20030;-81
2022/09/08 09:56:21;;;;;;;1.77;1.33;;;21.60;62.20;;;;;;4998872;28;20032;-81
2022/09/08 09:59:02;;;;;;;1.70;1.30;;;21.60;62.30;;;;;;5031748;28;20030;-81
2022/09/08 10:02:01;;;;;;;1.45;1.30;;;21.60;62.30;;;;;;5034369;28;20533;-81
2022/09/08 10:04:37;;;;;;;1.98;1.30;;;21.60;62.30;;;;;;4979327;28;20083;-79
2022/09/08 10:07:23;;;;;;;3.08;1.50;;;21.60;62.30;;;;;;5016959;28;20041;-81
2022/09/08 10:09:58;;;;;;;1.58;1.30;;;21.70;62.30;;;;;;5002668;28;20044;-80
2022/09/08 10:12:58;;;;;;;2.55;1.50;;;21.70;62.30;;;;;;5009123;28;20044;-80
2022/09/08 10:16:05;;;;;;;1.33;1.20;;;21.70;62.30;;;;;;5021590;28;20035;-83
2022/09/08 10:19:00;;;;;;;1.10;1.00;;;21.70;62.30;;;;;;4993635;28;20305;-83
2022/09/08 10:21:48;;;;;;;1.25;1.15;;;21.70;62.30;;;;;;5031780;28;20032;-85
2022/09/08 10:24:14;;;;;;;1.20;1.00;;;21.70;62.10;;;;;;5030133;28;20017;-84
2022/09/08 10:26:55;;;;;;;1.40;1.02;;;21.80;62.10;;;;;;5000045;28;20032;-83
2022/09/08 10:29:36;;;;;;;1.40;1.23;;;21.80;62.20;;;;;;5016271;28;20029;-85
2022/09/08 10:32:04;;;;;;;2.05;1.13;;;21.80;62.30;;;;;;4997767;28;20029;-85
2022/09/08 10:34:45;;;;;;;3.00;1.38;;;21.80;62.10;;;;;;5016377;28;20382;-81
2022/09/08 10:37:47;;;;;;;2.50;1.27;;;21.90;62.20;;;;;;5033271;28;20021;-80
2022/09/08 10:40:45;;;;;;;2.17;1.40;;;21.90;62.30;;;;;;5013897;28;20060;-81
2022/09/08 10:43:48;;;;;;;1.20;1.10;;;21.90;62.30;;;;;;5026708;28;20029;-81
2022/09/08 10:46:48;;;;;;;1.85;1.30;;;21.90;62.20;;;;;;5012569;28;20363;-80
2022/09/08 10:49:23;;;;;;;1.02;0.93;;;21.90;62.20;;;;;;5031487;28;20505;-82
2022/09/08 10:51:55;;;;;;;1.30;1.20;;;21.90;62.00;;;;;;5017783;28;20049;-82
2022/09/08 10:54:39;;;;;;;1.50;1.40;;;22.00;62.20;;;;;;5012475;28;20109;-82
2022/09/08 10:57:18;;;;;;;1.30;1.20;;;22.00;62.10;;;;;;5034128;28;20123;-83
2022/09/08 11:00:10;;;;;;;1.63;1.05;;;22.00;62.20;;;;;;5001353;28;20030;-82
2022/09/08 11:03:05;;;;;;;0.95;0.95;;;22.10;62.20;;;;;;5029950;28;20045;-83
2022/09/08 11:05:49;;;;;;;3.25;1.60;;;22.10;62.20;;;;;;5013041;28;20030;-82
2022/09/08 11:08:38;;;;;;;1.10;1.00;;;22.10;62.20;;;;;;5032021;28;20025;-82
2022/09/08 11:11:03;;;;;;;1.30;1.20;;;22.10;62.10;;;;;;5049488;28;20284;-83
2022/09/08 11:13:33;;;;;;;1.70;1.20;;;22.20;62.00;;;;;;5010861;28;20036;-82
2022/09/08 11:16:15;;;;;;;1.63;1.23;;;22.20;62.10;;;;;;5013374;28;20038;-82
2022/09/08 11:18:43;;;;;;;2.63;1.05;;;22.20;62.10;;;;;;5014527;28;20536;-83
2022/09/08 11:21:38;;;;;;;1.38;1.00;;;22.20;62.00;;;;;;4999908;28;20518;-82
2022/09/08 11:24:16;;;;;;;1.23;1.13;;;22.30;62.20;;;;;;5013297;28;20076;-82
2022/09/08 11:26:50;;;;;;;1.20;1.10;;;22.30;62.00;;;;;;5029759;28;20026;-82
2022/09/08 11:29:17;;;;;;;1.48;1.10;;;22.30;62.00;;;;;;5017991;28;20036;-82
2022/09/08 11:31:53;;;;;;;1.77;1.30;;;22.30;61.90;;;;;;5029889;28;20030;-82
2022/09/08 11:35:04;;;;;;;1.80;1.20;;;22.30;62.00;;;;;;5010173;28;20124;-82
2022/09/08 11:37:53;;;;;;;1.13;1.00;;;22.40;62.10;;;;;;5019737;28;20036;-82
2022/09/08 11:40:48;;;;;;;1.63;1.23;;;22.40;61.90;;;;;;5028927;28;20116;-83
2022/09/08 11:43:41;;;;;;;1.75;1.10;;;22.40;62.00;;;;;;5026860;28;20021;-82
2022/09/08 11:46:21;;;;;;;1.20;1.00;;;22.40;62.00;;;;;;5018181;28;20024;-81
2022/09/08 11:49:16;;;;;;;1.13;0.98;;;22.50;62.00;;;;;;5030068;28;20112;-81
2022/09/08 11:52:03;;;;;;;1.40;0.90;;;22.40;62.00;;;;;;5014187;28;20032;-82
2022/09/08 11:55:07;;;;;;;1.27;1.00;;;22.50;61.80;;;;;;5011622;28;20486;-82
2022/09/08 11:57:54;;;;;;;1.40;0.90;;;22.50;61.90;;;;;;5011040;28;20022;-83
2022/09/08 12:00:29;;;;;;;1.42;1.02;;;22.50;61.90;;;;;;5029652;28;20060;-82
2022/09/08 12:03:23;;;;;;;1.00;0.90;;;22.50;61.80;;;;;;5009472;28;20026;-82
2022/09/08 12:06:27;;;;;;;1.20;1.00;;;22.50;61.90;;;;;;5026965;28;20478;-82
2022/09/08 12:09:14;;;;;;;0.63;0.63;;;22.60;61.80;;;;;;4996530;28;20413;-82
2022/09/08 12:12:08;;;;;;;1.80;1.20;;;22.50;61.70;;;;;;5030791;28;20034;-82
2022/09/08 12:15:12;;;;;;;0.98;0.85;;;22.50;61.60;;;;;;5012043;28;20029;-82
2022/09/08 12:17:59;;;;;;;0.90;0.90;;;22.60;61.70;;;;;;5016940;28;20029;-81
2022/09/08 12:20:28;;;;;;;1.33;1.00;;;22.50;61.50;;;;;;4994045;28;20084;-82
2022/09/08 12:23:22;;;;;;;1.10;1.00;;;22.60;61.40;;;;;;5005771;28;20014;-81
2022/09/08 12:26:09;;;;;;;0.85;0.85;;;22.60;61.50;;;;;;5016885;28;20029;-81
2022/09/08 12:28:37;;;;;;;1.30;0.88;;;22.60;61.30;;;;;;5031569;28;20053;-81
2022/09/08 12:31:11;;;;;;;0.90;0.90;;;22.60;61.30;;;;;;5029021;28;20373;-81
2022/09/08 12:34:17;;;;;;;1.17;0.90;;;22.60;61.30;;;;;;5011682;28;20021;-81
2022/09/08 12:36:49;;;;;;;1.00;0.85;;;22.60;61.30;;;;;;5014339;28;20083;-81
2022/09/08 12:39:33;;;;;;;1.13;0.90;;;22.60;61.10;;;;;;5031833;28;20037;-81
2022/09/08 12:42:41;;;;;;;1.38;0.82;;;22.60;61.10;;;;;;5044498;28;20044;-80
2022/09/08 12:45:18;;;;;;;1.60;0.90;;;22.60;61.10;;;;;;4994176;28;20072;-81
2022/09/08 12:47:59;;;;;;;0.98;0.82;;;22.60;61.00;;;;;;5011088;28;20121;-82
2022/09/08 12:50:41;;;;;;;1.33;0.93;;;22.60;61.10;;;;;;5011811;28;20108;-82
2022/09/08 12:53:42;;;;;;;0.70;0.70;;;22.70;61.10;;;;;;5012423;28;20033;-81
2022/09/08 12:56:32;;;;;;;0.82;0.80;;;22.70;61.10;;;;;;5044915;28;20029;-81
2022/09/08 12:59:39;;;;;;;1.67;1.00;;;22.70;61.00;;;;;;5013949;28;20029;-81
2022/09/08 13:02:11;;;;;;;1.17;0.80;;;22.70;61.00;;;;;;5014704;28;20120;-82
2022/09/08 13:05:04;;;;;;;0.60;0.60;;;22.70;60.80;;;;;;5035982;28;20024;-82
2022/09/08 13:08:08;;;;;;;0.88;0.80;;;22.70;60.90;;;;;;5050128;28;20137;-82
2022/09/08 13:10:37;;;;;;;1.27;0.75;;;22.70;60.80;;;;;;5033264;28;20079;-81
2022/09/08 13:13:18;;;;;;;0.90;0.85;;;22.80;60.70;;;;;;4998331;28;20366;-81
2022/09/08 13:15:51;;;;;;;0.75;0.70;;;22.80;60.80;;;;;;5016584;28;20467;-81
2022/09/08 13:18:24;;;;;;;0.98;0.70;;;22.80;60.60;;;;;;5010051;28;20450;-81
2022/09/08 13:20:54;;;;;;;0.93;0.75;;;22.80;60.60;;;;;;5017296;28;20029;-81
2022/09/08 13:23:34;;;;;;;1.70;0.80;;;22.80;60.50;;;;;;5031909;28;20367;-81
2022/09/08 13:26:30;;;;;;;0.82;0.80;;;22.80;60.40;;;;;;5037802;28;20132;-81
2022/09/08 13:29:02;;;;;;;0.80;0.80;;;22.80;60.50;;;;;;5014123;28;20470;-80
2022/09/08 13:31:35;;;;;;;1.73;1.00;;;22.90;60.40;;;;;;5014546;28;20467;-81
2022/09/08 13:34:10;;;;;;;0.95;0.85;;;22.90;60.40;;;;;;5014352;28;20057;-81
2022/09/08 13:36:42;;;;;;;0.55;0.55;;;22.90;60.40;;;;;;5014808;28;20018;-79
2022/09/08 13:39:42;;;;;;;1.30;0.80;;;22.90;60.30;;;;;;5017260;28;20111;-81